Time;durP1;ratioP1;P1;durP2;ratioP2;P2;SDS_P1;SDS_P2;PMS_P1;PMS_P2;Temp;Humidity;BMP_temperature;BMP_pressure;BME280_temperature;BME280_humidity;BME280_pressure;Samples;Min_cycle;Max_cycle;Signal;HPM_P1;HPM_P2
2022/09/17 00:00:37;;;;;;;;;;;18.90;99.90;;;;;;4590874;19;19923;-24
2022/09/17 00:02:29;;;;;;;;;;;18.90;99.90;;;;;;4590742;19;19915;-25
2022/09/17 00:04:04;;;;;;;;;;;18.90;99.90;;;;;;4590623;19;19928;-24
2022/09/17 00:05:38;;;;;;;;;;;18.80;99.90;;;;;;4591064;19;19919;-26
2022/09/17 00:07:09;;;;;;;;;;;18.90;99.90;;;;;;4589833;19;19919;-24
2022/09/17 00:08:40;;;;;;;;;;;18.80;99.90;;;;;;4590828;19;19915;-24
2022/09/17 00:10:11;;;;;;;;;;;18.80;99.90;;;;;;4590531;19;20268;-26
2022/09/17 00:11:42;;;;;;;;;;;18.90;99.90;;;;;;4590091;19;19951;-25
2022/09/17 00:13:13;;;;;;;;;;;18.80;99.90;;;;;;4590654;19;19911;-26
2022/09/17 00:14:44;;;;;;;;;;;18.80;99.90;;;;;;4590461;19;19922;-24
2022/09/17 00:16:23;;;;;;;;;;;18.90;99.90;;;;;;4590195;19;19915;-27
2022/09/17 00:17:56;;;;;;;;;;;18.80;99.90;;;;;;4590532;19;19919;-26
2022/09/17 00:19:28;;;;;;;;;;;18.90;99.90;;;;;;4590494;19;19922;-27
2022/09/17 00:20:59;;;;;;;;;;;18.90;99.90;;;;;;4590352;19;19923;-27
2022/09/17 00:22:30;;;;;;;;;;;18.90;99.90;;;;;;4589722;19;19975;-29
2022/09/17 00:24:02;;;;;;;;;;;18.80;99.90;;;;;;4590710;19;19919;-24
2022/09/17 00:25:33;;;;;;;;;;;18.90;99.90;;;;;;4590004;19;19915;-24
2022/09/17 00:27:04;;;;;;;;;;;18.90;99.90;;;;;;4588532;19;19918;-24
2022/09/17 00:28:35;;;;;;;;;;;18.80;99.90;;;;;;4590231;19;20287;-26
2022/09/17 00:30:07;;;;;;;;;;;18.90;99.90;;;;;;4590258;19;19919;-25
2022/09/17 00:31:38;;;;;;;;;;;18.80;99.90;;;;;;4590180;19;19925;-27
2022/09/17 00:33:15;;;;;;;;;;;18.80;99.90;;;;;;4590417;19;19922;-28
2022/09/17 00:34:48;;;;;;;;;;;18.80;99.90;;;;;;4590523;19;19917;-25
2022/09/17 00:36:19;;;;;;;;;;;18.80;99.90;;;;;;4590201;19;19927;-24
2022/09/17 00:37:50;;;;;;;;;;;18.90;99.90;;;;;;4590271;19;19915;-24
2022/09/17 00:39:21;;;;;;;;;;;18.90;99.90;;;;;;4590307;19;19930;-27
2022/09/17 00:40:52;;;;;;;;;;;18.80;99.90;;;;;;4590495;19;19922;-26
2022/09/17 00:42:23;;;;;;;;;;;18.80;99.90;;;;;;4590125;19;19929;-25
2022/09/17 00:43:58;;;;;;;;;;;18.80;99.90;;;;;;4589990;19;19926;-24
2022/09/17 00:45:30;;;;;;;;;;;18.80;99.90;;;;;;4589930;19;19929;-27
2022/09/17 00:47:01;;;;;;;;;;;18.80;99.90;;;;;;4589157;19;20363;-28
2022/09/17 00:48:33;;;;;;;;;;;18.90;99.90;;;;;;4588960;19;19931;-30
2022/09/17 00:50:07;;;;;;;;;;;18.80;99.90;;;;;;4589832;19;20330;-23
2022/09/17 00:51:39;;;;;;;;;;;18.80;99.90;;;;;;4589865;19;20321;-26
2022/09/17 00:53:11;;;;;;;;;;;18.80;99.90;;;;;;4590039;19;19915;-26
2022/09/17 00:54:44;;;;;;;;;;;18.80;99.90;;;;;;4588857;19;19932;-24
2022/09/17 00:56:19;;;;;;;;;;;18.80;99.90;;;;;;4588709;19;19986;-25
2022/09/17 00:57:51;;;;;;;;;;;18.80;99.90;;;;;;4589474;19;19971;-24
2022/09/17 00:59:22;;;;;;;;;;;18.80;99.90;;;;;;4589806;19;19921;-24
2022/09/17 01:00:53;;;;;;;;;;;18.80;99.90;;;;;;4589931;19;19926;-27
2022/09/17 01:02:24;;;;;;;;;;;18.80;99.90;;;;;;4589794;19;19910;-28
2022/09/17 01:03:55;;;;;;;;;;;18.80;99.90;;;;;;4588619;19;19919;-27
2022/09/17 01:05:46;;;;;;;;;;;18.80;99.90;;;;;;4589364;19;19923;-26
2022/09/17 01:07:21;;;;;;;;;;;18.80;99.90;;;;;;4586234;19;19923;-27
2022/09/17 01:08:51;;;;;;;;;;;18.80;99.90;;;;;;4587407;19;19931;-26
2022/09/17 01:10:31;;;;;;;;;;;18.80;99.90;;;;;;4587799;19;20422;-27
2022/09/17 01:12:05;;;;;;;;;;;18.80;99.90;;;;;;4586209;19;19934;-23
2022/09/17 01:13:41;;;;;;;;;;;18.80;99.90;;;;;;4587459;19;20290;-23
2022/09/17 01:15:30;;;;;;;;;;;18.80;99.90;;;;;;4587325;19;20320;-24
2022/09/17 01:17:01;;;;;;;;;;;18.80;99.90;;;;;;4587335;19;19919;-24
2022/09/17 01:18:41;;;;;;;;;;;18.80;99.90;;;;;;4587650;19;19919;-26
2022/09/17 01:20:30;;;;;;;;;;;18.80;99.90;;;;;;4587563;19;20342;-25
2022/09/17 01:22:01;;;;;;;;;;;18.80;99.90;;;;;;4587115;19;19922;-25
2022/09/17 01:23:47;;;;;;;;;;;18.80;99.90;;;;;;4587357;19;19935;-25
2022/09/17 01:25:23;;;;;;;;;;;18.80;99.90;;;;;;4587416;19;19927;-24
2022/09/17 01:27:12;;;;;;;;;;;18.80;99.90;;;;;;4586228;19;19929;-26
2022/09/17 01:29:02;;;;;;;;;;;18.80;99.90;;;;;;4587313;19;20321;-25
2022/09/17 01:30:37;;;;;;;;;;;18.80;99.90;;;;;;4587540;19;19926;-24
2022/09/17 01:32:11;;;;;;;;;;;18.80;99.90;;;;;;4587008;19;20515;-27
2022/09/17 01:34:05;;;;;;;;;;;18.80;99.90;;;;;;4588092;19;19949;-24
2022/09/17 01:35:37;;;;;;;;;;;18.80;99.90;;;;;;4591466;19;19914;-30
2022/09/17 01:37:27;;;;;;;;;;;18.80;99.90;;;;;;4591749;19;20321;-24
2022/09/17 01:39:07;;;;;;;;;;;18.80;99.90;;;;;;4591888;19;19970;-27
2022/09/17 01:40:40;;;;;;;;;;;18.80;99.90;;;;;;4591360;19;19964;-27
2022/09/17 01:42:14;;;;;;;;;;;18.80;99.90;;;;;;4591313;19;19915;-26
2022/09/17 01:43:45;;;;;;;;;;;18.80;99.90;;;;;;4591699;19;19915;-23
2022/09/17 01:45:18;;;;;;;;;;;18.80;99.90;;;;;;4591347;19;20435;-25
2022/09/17 01:46:50;;;;;;;;;;;18.80;99.90;;;;;;4590316;19;19940;-24
2022/09/17 01:48:32;;;;;;;;;;;18.80;99.90;;;;;;4591399;19;19915;-29
2022/09/17 01:50:05;;;;;;;;;;;18.80;99.90;;;;;;4591489;19;19926;-24
2022/09/17 01:51:37;;;;;;;;;;;18.80;99.90;;;;;;4591378;19;19915;-24
2022/09/17 01:53:09;;;;;;;;;;;18.80;99.90;;;;;;4591093;19;19925;-25
2022/09/17 01:54:43;;;;;;;;;;;18.80;99.90;;;;;;4591100;19;19919;-27
2022/09/17 01:56:15;;;;;;;;;;;18.80;99.90;;;;;;4591316;19;19927;-26
2022/09/17 01:57:55;;;;;;;;;;;18.80;99.90;;;;;;4591493;19;19911;-32
2022/09/17 01:59:30;;;;;;;;;;;18.80;99.90;;;;;;4591321;19;20316;-24
2022/09/17 02:01:02;;;;;;;;;;;18.80;99.90;;;;;;4591064;19;20376;-24
2022/09/17 02:02:35;;;;;;;;;;;18.80;99.90;;;;;;4591313;19;19926;-26
2022/09/17 02:04:08;;;;;;;;;;;18.80;99.90;;;;;;4591490;19;19936;-25
2022/09/17 02:06:03;;;;;;;;;;;18.80;99.90;;;;;;4590954;19;19937;-24
2022/09/17 02:07:37;;;;;;;;;;;18.80;99.90;;;;;;4588995;19;19926;-25
2022/09/17 02:09:18;;;;;;;;;;;18.80;99.90;;;;;;4591198;19;19977;-25
2022/09/17 02:10:51;;;;;;;;;;;18.80;99.90;;;;;;4590584;19;20273;-27
2022/09/17 02:12:24;;;;;;;;;;;18.80;99.90;;;;;;4590622;19;19934;-24
2022/09/17 02:13:57;;;;;;;;;;;18.80;99.90;;;;;;4591959;19;19957;-25
2022/09/17 02:15:30;;;;;;;;;;;18.80;99.90;;;;;;4592801;19;19918;-24
2022/09/17 02:17:06;;;;;;;;;;;18.80;99.90;;;;;;4592818;19;19922;-24
2022/09/17 02:18:57;;;;;;;;;;;18.80;99.90;;;;;;4592245;19;19919;-25
2022/09/17 02:20:48;;;;;;;;;;;18.80;99.90;;;;;;4590593;19;20385;-24
2022/09/17 02:22:21;;;;;;;;;;;18.80;99.90;;;;;;4590485;19;19939;-27
2022/09/17 02:24:12;;;;;;;;;;;18.80;99.90;;;;;;4590916;19;19919;-24
2022/09/17 02:25:46;;;;;;;;;;;18.80;99.90;;;;;;4589702;19;19939;-24
2022/09/17 02:27:17;;;;;;;;;;;18.80;99.90;;;;;;4589897;19;19923;-28
2022/09/17 02:28:58;;;;;;;;;;;18.80;99.90;;;;;;4590415;19;19923;-28
2022/09/17 02:30:30;;;;;;;;;;;18.80;99.90;;;;;;4590464;19;20022;-28
2022/09/17 02:32:01;;;;;;;;;;;18.80;99.90;;;;;;4590661;19;19923;-23
2022/09/17 02:33:33;;;;;;;;;;;18.80;99.90;;;;;;4590882;19;19923;-26
2022/09/17 02:35:05;;;;;;;;;;;18.80;99.90;;;;;;4590444;19;19923;-26
2022/09/17 02:36:36;;;;;;;;;;;18.80;99.90;;;;;;4590471;19;19959;-27
2022/09/17 02:38:07;;;;;;;;;;;18.80;99.90;;;;;;4590501;19;20324;-25
2022/09/17 02:39:38;;;;;;;;;;;18.80;99.90;;;;;;4590654;19;19922;-27
2022/09/17 02:41:12;;;;;;;;;;;18.80;99.90;;;;;;4590400;19;19911;-24
2022/09/17 02:42:55;;;;;;;;;;;18.80;99.90;;;;;;4590388;19;19946;-31
2022/09/17 02:44:26;;;;;;;;;;;18.80;99.90;;;;;;4590207;19;19915;-30
2022/09/17 02:46:02;;;;;;;;;;;18.80;99.90;;;;;;4590326;19;19929;-25
2022/09/17 02:47:33;;;;;;;;;;;18.80;99.90;;;;;;4588881;19;19970;-24
2022/09/17 02:49:08;;;;;;;;;;;18.80;99.90;;;;;;4590097;19;20358;-24
2022/09/17 02:50:43;;;;;;;;;;;18.80;99.90;;;;;;4590249;19;19910;-25
2022/09/17 02:52:14;;;;;;;;;;;18.80;99.90;;;;;;4590003;19;19915;-25
2022/09/17 02:54:18;;;;;;;;;;;18.80;99.90;;;;;;4590045;19;19926;-26
2022/09/17 02:56:09;;;;;;;;;;;18.80;99.90;;;;;;4589980;19;19911;-25
2022/09/17 02:57:43;;;;;;;;;;;18.80;99.90;;;;;;4589967;19;19919;-26
2022/09/17 02:59:20;;;;;;;;;;;18.80;99.90;;;;;;4589994;19;19923;-24
2022/09/17 03:00:52;;;;;;;;;;;18.80;99.90;;;;;;4589747;19;19953;-30
2022/09/17 03:02:23;;;;;;;;;;;18.80;99.90;;;;;;4589865;19;19983;-24
2022/09/17 03:03:54;;;;;;;;;;;18.80;99.90;;;;;;4589826;19;19919;-26
2022/09/17 03:05:25;;;;;;;;;;;18.80;99.90;;;;;;4589684;19;19915;-26
2022/09/17 03:06:58;;;;;;;;;;;18.80;99.90;;;;;;4589244;19;19974;-30
2022/09/17 03:08:31;;;;;;;;;;;18.80;99.90;;;;;;4589741;19;19915;-26
2022/09/17 03:10:03;;;;;;;;;;;18.80;99.90;;;;;;4589654;19;19915;-24
2022/09/17 03:11:34;;;;;;;;;;;18.80;99.90;;;;;;4588632;19;19919;-24
2022/09/17 03:13:05;;;;;;;;;;;18.80;99.90;;;;;;4589494;19;19922;-23
2022/09/17 03:14:36;;;;;;;;;;;18.80;99.90;;;;;;4589494;19;20371;-24
2022/09/17 03:16:07;;;;;;;;;;;18.80;99.90;;;;;;4589908;19;19938;-26
2022/09/17 03:17:38;;;;;;;;;;;18.80;99.90;;;;;;4589440;19;20397;-25
2022/09/17 03:19:09;;;;;;;;;;;18.80;99.90;;;;;;4589665;19;19922;-24
2022/09/17 03:20:40;;;;;;;;;;;18.80;99.90;;;;;;4589406;19;19946;-24
2022/09/17 03:22:11;;;;;;;;;;;18.80;99.90;;;;;;4589888;19;19942;-26
2022/09/17 03:23:43;;;;;;;;;;;18.80;99.90;;;;;;4589670;19;19915;-23
2022/09/17 03:25:14;;;;;;;;;;;18.80;99.90;;;;;;4589721;19;19915;-27
2022/09/17 03:26:46;;;;;;;;;;;18.80;99.90;;;;;;4587928;19;19927;-24
2022/09/17 03:28:17;;;;;;;;;;;18.80;99.90;;;;;;4589221;19;19922;-26
2022/09/17 03:29:48;;;;;;;;;;;18.80;99.90;;;;;;4589268;19;20337;-25
2022/09/17 03:31:19;;;;;;;;;;;18.80;99.90;;;;;;4589438;19;19923;-26
2022/09/17 03:32:50;;;;;;;;;;;18.80;99.90;;;;;;4591284;19;19928;-25
2022/09/17 03:34:21;;;;;;;;;;;18.80;99.90;;;;;;4591570;19;20332;-23
2022/09/17 03:35:52;;;;;;;;;;;18.80;99.90;;;;;;4591727;19;20009;-29
2022/09/17 03:37:23;;;;;;;;;;;18.80;99.90;;;;;;4591720;19;19995;-22
2022/09/17 03:38:54;;;;;;;;;;;18.80;99.90;;;;;;4588869;19;19975;-26
2022/09/17 03:40:25;;;;;;;;;;;18.80;99.90;;;;;;4589333;19;19919;-24
2022/09/17 03:41:56;;;;;;;;;;;18.80;99.90;;;;;;4589486;19;19935;-23
2022/09/17 03:43:27;;;;;;;;;;;18.80;99.90;;;;;;4589048;19;19926;-25
2022/09/17 03:44:58;;;;;;;;;;;18.80;99.90;;;;;;4589280;19;19923;-24
2022/09/17 03:46:29;;;;;;;;;;;18.80;99.90;;;;;;4589099;19;20253;-26
2022/09/17 03:48:00;;;;;;;;;;;18.90;99.90;;;;;;4588701;19;19985;-24
2022/09/17 03:49:32;;;;;;;;;;;18.90;99.90;;;;;;4589024;19;19915;-25
2022/09/17 03:51:03;;;;;;;;;;;18.80;99.90;;;;;;4589116;19;19926;-28
2022/09/17 03:52:34;;;;;;;;;;;18.80;99.90;;;;;;4588914;19;19951;-26
2022/09/17 03:54:06;;;;;;;;;;;18.90;99.90;;;;;;4588752;19;19922;-26
2022/09/17 03:55:37;;;;;;;;;;;18.80;99.90;;;;;;4588970;19;19947;-27
2022/09/17 03:57:08;;;;;;;;;;;18.90;99.90;;;;;;4587876;19;19989;-26
2022/09/17 03:58:39;;;;;;;;;;;18.90;99.90;;;;;;4588973;19;19923;-24
2022/09/17 04:00:11;;;;;;;;;;;18.80;99.90;;;;;;4588729;19;19998;-30
2022/09/17 04:01:42;;;;;;;;;;;18.90;99.90;;;;;;4588677;19;20309;-27
2022/09/17 04:03:13;;;;;;;;;;;18.90;99.90;;;;;;4588971;19;19942;-27
2022/09/17 04:04:44;;;;;;;;;;;18.90;99.90;;;;;;4588669;19;19934;-27
2022/09/17 04:06:15;;;;;;;;;;;18.80;99.90;;;;;;4588295;19;19915;-24
2022/09/17 04:07:46;;;;;;;;;;;18.90;99.90;;;;;;4588751;19;20332;-24
2022/09/17 04:09:17;;;;;;;;;;;18.90;99.90;;;;;;4588973;19;19919;-28
2022/09/17 04:10:48;;;;;;;;;;;18.90;99.90;;;;;;4589950;19;20375;-24
2022/09/17 04:12:19;;;;;;;;;;;18.90;99.90;;;;;;4590479;19;20344;-26
2022/09/17 04:13:50;;;;;;;;;;;18.90;99.90;;;;;;4589666;19;19907;-26
2022/09/17 04:15:21;;;;;;;;;;;18.90;99.90;;;;;;4590596;19;20315;-26
2022/09/17 04:17:17;;;;;;;;;;;18.90;99.90;;;;;;4590326;19;19938;-24
2022/09/17 04:18:48;;;;;;;;;;;18.90;99.90;;;;;;4590405;19;19923;-25
2022/09/17 04:20:19;;;;;;;;;;;18.90;99.90;;;;;;4590095;19;19914;-25
2022/09/17 04:21:50;;;;;;;;;;;18.90;99.90;;;;;;4590863;19;19919;-25
2022/09/17 04:23:21;;;;;;;;;;;18.90;99.90;;;;;;4589195;19;20321;-26
2022/09/17 04:24:52;;;;;;;;;;;18.90;99.90;;;;;;4590115;19;19926;-24
2022/09/17 04:26:24;;;;;;;;;;;18.80;99.90;;;;;;4588921;19;19919;-24
2022/09/17 04:27:54;;;;;;;;;;;18.90;99.90;;;;;;4590346;19;19927;-26
2022/09/17 04:29:25;;;;;;;;;;;18.90;99.90;;;;;;4591151;19;19915;-25
2022/09/17 04:30:57;;;;;;;;;;;19.00;99.90;;;;;;4589282;19;19945;-26
2022/09/17 04:32:28;;;;;;;;;;;19.00;99.90;;;;;;4588670;19;19919;-26
2022/09/17 04:33:59;;;;;;;;;;;19.00;99.90;;;;;;4588971;19;19966;-29
2022/09/17 04:35:32;;;;;;;;;;;19.00;99.90;;;;;;4591419;19;20333;-27
2022/09/17 04:37:04;;;;;;;;;;;19.10;99.90;;;;;;4589861;19;19930;-27
2022/09/17 04:38:35;;;;;;;;;;;19.10;99.90;;;;;;4590705;19;19915;-26
2022/09/17 04:40:06;;;;;;;;;;;19.10;99.90;;;;;;4590094;19;19915;-28
2022/09/17 04:41:38;;;;;;;;;;;19.10;99.90;;;;;;4587899;19;19919;-24
2022/09/17 04:43:09;;;;;;;;;;;19.10;99.90;;;;;;4587651;19;20557;-26
2022/09/17 04:44:40;;;;;;;;;;;19.10;99.90;;;;;;4587407;19;19918;-25
2022/09/17 04:46:13;;;;;;;;;;;19.10;99.90;;;;;;4586877;19;19941;-26
2022/09/17 04:47:44;;;;;;;;;;;19.10;99.90;;;;;;4585529;19;19922;-28
2022/09/17 04:49:15;;;;;;;;;;;19.10;99.90;;;;;;4586406;19;19927;-23
2022/09/17 04:50:46;;;;;;;;;;;19.10;99.90;;;;;;4589476;19;20372;-25
2022/09/17 04:52:17;;;;;;;;;;;19.10;99.90;;;;;;4588644;19;19911;-24
2022/09/17 04:53:48;;;;;;;;;;;19.10;99.90;;;;;;4588115;19;19911;-26
2022/09/17 04:55:19;;;;;;;;;;;19.10;99.90;;;;;;4586986;19;20358;-24
2022/09/17 04:56:50;;;;;;;;;;;19.10;99.90;;;;;;4586861;19;19941;-24
2022/09/17 04:58:21;;;;;;;;;;;19.10;99.90;;;;;;4588036;19;19915;-27
2022/09/17 04:59:52;;;;;;;;;;;19.10;99.90;;;;;;4588244;19;20010;-25
2022/09/17 05:01:23;;;;;;;;;;;19.10;99.90;;;;;;4587824;19;19918;-25
2022/09/17 05:02:55;;;;;;;;;;;19.20;99.90;;;;;;4586547;19;19915;-24
2022/09/17 05:04:26;;;;;;;;;;;19.10;99.90;;;;;;4586650;19;19915;-24
2022/09/17 05:05:57;;;;;;;;;;;19.10;99.90;;;;;;4586610;19;20298;-26
2022/09/17 05:07:29;;;;;;;;;;;19.10;99.90;;;;;;4585786;19;19935;-29
2022/09/17 05:09:01;;;;;;;;;;;19.20;99.90;;;;;;4588682;19;19990;-23
2022/09/17 05:10:31;;;;;;;;;;;19.20;99.90;;;;;;4591408;19;20337;-27
2022/09/17 05:12:02;;;;;;;;;;;19.10;99.90;;;;;;4590264;19;19919;-24
2022/09/17 05:13:34;;;;;;;;;;;19.10;99.90;;;;;;4591176;19;20404;-27
2022/09/17 05:15:05;;;;;;;;;;;19.10;99.90;;;;;;4591245;19;19926;-26
2022/09/17 05:16:36;;;;;;;;;;;19.20;99.90;;;;;;4591577;19;19970;-24
2022/09/17 05:18:10;;;;;;;;;;;19.10;99.90;;;;;;4592475;19;19932;-27
2022/09/17 05:19:41;;;;;;;;;;;19.10;99.90;;;;;;4592822;19;19955;-24
2022/09/17 05:21:12;;;;;;;;;;;19.20;99.90;;;;;;4594779;19;19961;-26
2022/09/17 05:22:43;;;;;;;;;;;19.20;99.90;;;;;;4593634;19;20272;-25
2022/09/17 05:24:14;;;;;;;;;;;19.20;99.90;;;;;;4593816;19;20261;-25
2022/09/17 05:25:45;;;;;;;;;;;19.10;99.90;;;;;;4592650;19;19926;-26
2022/09/17 05:27:16;;;;;;;;;;;19.20;99.90;;;;;;4593063;19;19925;-24
2022/09/17 05:28:47;;;;;;;;;;;19.20;99.90;;;;;;4593951;19;19925;-24
2022/09/17 05:30:18;;;;;;;;;;;19.20;99.90;;;;;;4593666;19;19920;-26
2022/09/17 05:31:49;;;;;;;;;;;19.20;99.90;;;;;;4593159;19;20340;-24
2022/09/17 05:33:20;;;;;;;;;;;19.20;99.90;;;;;;4592990;19;20016;-25
2022/09/17 05:34:51;;;;;;;;;;;19.20;99.90;;;;;;4594213;19;19915;-27
2022/09/17 05:36:22;;;;;;;;;;;19.20;99.90;;;;;;4591339;19;19914;-27
2022/09/17 05:37:59;;;;;;;;;;;19.20;99.90;;;;;;4591012;19;19931;-26
2022/09/17 05:39:31;;;;;;;;;;;19.20;99.90;;;;;;4590955;19;19929;-24
2022/09/17 05:41:04;;;;;;;;;;;19.20;99.90;;;;;;4590514;19;19915;-28
2022/09/17 05:42:35;;;;;;;;;;;19.20;99.90;;;;;;4591777;19;20317;-26
2022/09/17 05:44:06;;;;;;;;;;;19.20;99.90;;;;;;4591386;19;20409;-25
2022/09/17 05:45:37;;;;;;;;;;;19.20;99.90;;;;;;4591218;19;19914;-24
2022/09/17 05:47:08;;;;;;;;;;;19.20;99.90;;;;;;4589815;19;19944;-26
2022/09/17 05:48:39;;;;;;;;;;;19.20;99.90;;;;;;4590179;19;20009;-27
2022/09/17 05:50:11;;;;;;;;;;;19.20;99.90;;;;;;4591296;19;20425;-26
2022/09/17 05:51:42;;;;;;;;;;;19.20;99.90;;;;;;4591600;19;19943;-26
2022/09/17 05:53:13;;;;;;;;;;;19.20;99.90;;;;;;4590863;19;19915;-25
2022/09/17 05:54:45;;;;;;;;;;;19.20;99.90;;;;;;4590767;19;19922;-24
2022/09/17 05:56:18;;;;;;;;;;;19.20;99.90;;;;;;4591629;19;19923;-29
2022/09/17 05:57:49;;;;;;;;;;;19.20;99.90;;;;;;4591153;19;19926;-25
2022/09/17 05:59:20;;;;;;;;;;;19.20;99.90;;;;;;4590898;19;19934;-24
2022/09/17 06:00:51;;;;;;;;;;;19.30;99.90;;;;;;4590599;19;19918;-24
2022/09/17 06:02:22;;;;;;;;;;;19.20;99.90;;;;;;4590490;19;19937;-25
2022/09/17 06:03:53;;;;;;;;;;;19.20;99.90;;;;;;4590028;19;19943;-24
2022/09/17 06:05:24;;;;;;;;;;;19.20;99.90;;;;;;4590667;19;19919;-25
2022/09/17 06:06:56;;;;;;;;;;;19.20;99.90;;;;;;4590580;19;19915;-27
2022/09/17 06:08:30;;;;;;;;;;;19.20;99.90;;;;;;4592785;19;20385;-23
2022/09/17 06:10:01;;;;;;;;;;;19.20;99.90;;;;;;4592880;19;19923;-24
2022/09/17 06:11:32;;;;;;;;;;;19.20;99.90;;;;;;4591754;19;19922;-25
2022/09/17 06:13:03;;;;;;;;;;;19.20;99.90;;;;;;4592327;19;19974;-23
2022/09/17 06:14:34;;;;;;;;;;;19.20;99.90;;;;;;4592056;19;20380;-28
2022/09/17 06:16:05;;;;;;;;;;;19.20;99.90;;;;;;4591842;19;19918;-26
2022/09/17 06:17:36;;;;;;;;;;;19.30;99.90;;;;;;4591128;19;19984;-24
2022/09/17 06:19:08;;;;;;;;;;;19.30;99.90;;;;;;4590826;19;20332;-24
2022/09/17 06:20:39;;;;;;;;;;;19.30;99.90;;;;;;4590511;19;19910;-27
2022/09/17 06:22:10;;;;;;;;;;;19.30;99.90;;;;;;4592876;19;20017;-24
2022/09/17 06:23:42;;;;;;;;;;;19.30;99.90;;;;;;4592730;19;19926;-24
2022/09/17 06:25:14;;;;;;;;;;;19.30;99.90;;;;;;4592490;19;19919;-27
2022/09/17 06:26:45;;;;;;;;;;;19.30;99.90;;;;;;4590980;19;20346;-26
2022/09/17 06:28:16;;;;;;;;;;;19.40;99.90;;;;;;4591785;19;19919;-24
2022/09/17 06:29:47;;;;;;;;;;;19.40;99.90;;;;;;4591170;19;19918;-27
2022/09/17 06:31:18;;;;;;;;;;;19.40;99.90;;;;;;4591366;19;19933;-26
2022/09/17 06:32:49;;;;;;;;;;;19.40;99.90;;;;;;4591037;19;19911;-26
2022/09/17 06:34:20;;;;;;;;;;;19.40;99.90;;;;;;4590499;19;19982;-25
2022/09/17 06:36:01;;;;;;;;;;;19.40;99.90;;;;;;4593140;19;20534;-24
2022/09/17 06:37:32;;;;;;;;;;;19.40;99.90;;;;;;4592908;19;19929;-30
2022/09/17 06:39:04;;;;;;;;;;;19.50;99.90;;;;;;4593117;19;19926;-25
2022/09/17 06:40:35;;;;;;;;;;;19.40;99.90;;;;;;4592258;19;20322;-25
2022/09/17 06:42:06;;;;;;;;;;;19.40;99.90;;;;;;4591802;19;19929;-25
2022/09/17 06:43:37;;;;;;;;;;;19.40;99.90;;;;;;4591789;19;19925;-29
2022/09/17 06:45:09;;;;;;;;;;;19.40;99.90;;;;;;4590012;19;19929;-26
2022/09/17 06:46:40;;;;;;;;;;;19.40;99.90;;;;;;4589934;19;20451;-24
2022/09/17 06:48:11;;;;;;;;;;;19.40;99.90;;;;;;4590311;19;20250;-27
2022/09/17 06:49:42;;;;;;;;;;;19.40;99.90;;;;;;4590648;19;19922;-25
2022/09/17 06:51:13;;;;;;;;;;;19.40;99.90;;;;;;4592964;19;20260;-26
2022/09/17 06:52:48;;;;;;;;;;;19.40;99.90;;;;;;4592472;19;19930;-24
2022/09/17 06:54:19;;;;;;;;;;;19.40;99.90;;;;;;4592137;19;19922;-24
2022/09/17 06:55:50;;;;;;;;;;;19.40;99.90;;;;;;4592277;19;19918;-24
2022/09/17 06:57:21;;;;;;;;;;;19.40;99.90;;;;;;4591472;19;19925;-24
2022/09/17 06:58:52;;;;;;;;;;;19.40;99.90;;;;;;4591279;19;20005;-22
2022/09/17 07:00:23;;;;;;;;;;;19.40;99.90;;;;;;4590710;19;19926;-25
2022/09/17 07:01:55;;;;;;;;;;;19.50;99.90;;;;;;4590900;19;20376;-22
2022/09/17 07:03:26;;;;;;;;;;;19.50;99.90;;;;;;4589745;19;19937;-22
2022/09/17 07:04:57;;;;;;;;;;;19.40;99.90;;;;;;4589822;19;20372;-24
2022/09/17 07:06:28;;;;;;;;;;;19.50;99.90;;;;;;4592731;19;19923;-23
2022/09/17 07:08:00;;;;;;;;;;;19.50;99.90;;;;;;4592104;19;19921;-25
2022/09/17 07:09:31;;;;;;;;;;;19.70;99.90;;;;;;4591773;19;19919;-26
2022/09/17 07:11:02;;;;;;;;;;;19.60;99.90;;;;;;4590984;19;19914;-26
2022/09/17 07:12:33;;;;;;;;;;;19.70;99.90;;;;;;4589340;19;19949;-30
2022/09/17 07:14:04;;;;;;;;;;;19.60;99.90;;;;;;4590809;19;20292;-26
2022/09/17 07:15:35;;;;;;;;;;;19.60;99.90;;;;;;4591058;19;20305;-24
2022/09/17 07:17:06;;;;;;;;;;;19.60;99.90;;;;;;4591461;19;19915;-27
2022/09/17 07:18:37;;;;;;;;;;;19.60;99.90;;;;;;4591463;19;19926;-24
2022/09/17 07:20:09;;;;;;;;;;;19.70;99.90;;;;;;4590913;19;19926;-24
2022/09/17 07:21:40;;;;;;;;;;;19.70;99.90;;;;;;4591202;19;19911;-24
2022/09/17 07:23:11;;;;;;;;;;;19.70;99.90;;;;;;4590706;19;19919;-24
2022/09/17 07:24:41;;;;;;;;;;;19.70;99.90;;;;;;4590818;19;20346;-24
2022/09/17 07:26:13;;;;;;;;;;;19.70;99.90;;;;;;4590040;19;19930;-24
2022/09/17 07:27:44;;;;;;;;;;;19.70;99.90;;;;;;4589794;19;20258;-27
2022/09/17 07:29:16;;;;;;;;;;;19.70;99.90;;;;;;4590676;19;20269;-25
2022/09/17 07:30:48;;;;;;;;;;;19.70;99.90;;;;;;4590418;19;19919;-23
2022/09/17 07:32:19;;;;;;;;;;;19.70;99.90;;;;;;4589184;19;20332;-24
2022/09/17 07:33:50;;;;;;;;;;;19.70;99.90;;;;;;4589703;19;19923;-23
2022/09/17 07:35:21;;;;;;;;;;;19.70;99.90;;;;;;4590531;19;19952;-23
2022/09/17 07:36:52;;;;;;;;;;;19.70;99.90;;;;;;4590619;19;19919;-27
2022/09/17 07:38:23;;;;;;;;;;;19.70;99.90;;;;;;4590375;19;19926;-25
2022/09/17 07:39:54;;;;;;;;;;;19.60;99.90;;;;;;4590971;19;19930;-27
2022/09/17 07:41:25;;;;;;;;;;;19.70;99.90;;;;;;4591184;19;19929;-24
2022/09/17 07:42:57;;;;;;;;;;;19.70;99.90;;;;;;4589931;19;19927;-24
2022/09/17 07:44:28;;;;;;;;;;;19.70;99.90;;;;;;4589442;19;20325;-23
2022/09/17 07:46:00;;;;;;;;;;;19.70;99.90;;;;;;4588119;19;19966;-26
2022/09/17 07:47:31;;;;;;;;;;;19.70;99.90;;;;;;4587646;19;19915;-25
2022/09/17 07:49:02;;;;;;;;;;;19.70;99.90;;;;;;4588796;19;19931;-24
2022/09/17 07:50:33;;;;;;;;;;;19.70;99.90;;;;;;4591554;19;20256;-23
2022/09/17 07:52:05;;;;;;;;;;;19.60;99.90;;;;;;4590964;19;19942;-26
2022/09/17 07:53:36;;;;;;;;;;;19.50;99.90;;;;;;4590709;19;19919;-24
2022/09/17 07:55:07;;;;;;;;;;;19.50;99.90;;;;;;4590324;19;19937;-24
2022/09/17 07:56:38;;;;;;;;;;;19.50;99.90;;;;;;4589633;19;19919;-28
2022/09/17 07:58:09;;;;;;;;;;;19.50;99.90;;;;;;4589512;19;20018;-25
2022/09/17 07:59:40;;;;;;;;;;;19.40;99.90;;;;;;4589285;19;20041;-24
2022/09/17 08:01:11;;;;;;;;;;;19.40;99.90;;;;;;4587679;19;19936;-25
2022/09/17 08:02:42;;;;;;;;;;;19.40;99.90;;;;;;4588530;19;20258;-29
2022/09/17 08:04:13;;;;;;;;;;;19.40;99.90;;;;;;4591147;19;19926;-25
2022/09/17 08:05:44;;;;;;;;;;;19.30;99.90;;;;;;4591315;19;19910;-24
2022/09/17 08:07:15;;;;;;;;;;;19.30;99.90;;;;;;4589826;19;19925;-27
2022/09/17 08:08:46;;;;;;;;;;;19.30;99.90;;;;;;4588953;19;19931;-26
2022/09/17 08:10:20;;;;;;;;;;;19.30;99.90;;;;;;4588599;19;20269;-27
2022/09/17 08:11:51;;;;;;;;;;;19.30;99.90;;;;;;4589114;19;20252;-27
2022/09/17 08:13:22;;;;;;;;;;;19.30;99.90;;;;;;4589808;19;19914;-25
2022/09/17 08:14:53;;;;;;;;;;;17.50;99.90;;;;;;4589876;19;19922;-24
2022/09/17 08:16:25;;;;;;;;;;;16.80;99.90;;;;;;4591466;19;20272;-24
2022/09/17 08:17:56;;;;;;;;;;;16.40;99.90;;;;;;4589401;19;19915;-26
2022/09/17 08:19:30;;;;;;;;;;;16.30;99.90;;;;;;4588688;19;19971;-24
2022/09/17 08:21:02;;;;;;;;;;;16.30;99.90;;;;;;4590101;19;19919;-23
2022/09/17 08:22:34;;;;;;;;;;;16.20;99.90;;;;;;4589552;19;19926;-25
2022/09/17 08:24:04;;;;;;;;;;;16.20;99.90;;;;;;4590078;19;19919;-25
2022/09/17 08:42:14;;;;;;;;;;;18.40;99.90;;;;;;4588641;19;20348;-27
2022/09/17 08:44:21;;;;;;;;;;;18.50;99.90;;;;;;4594499;19;19928;-24
2022/09/17 08:45:53;;;;;;;;;;;18.50;99.90;;;;;;4592758;19;19915;-24
2022/09/17 08:47:28;;;;;;;;;;;18.60;99.90;;;;;;4591548;19;19933;-27
2022/09/17 08:49:20;;;;;;;;;;;18.60;99.90;;;;;;4592826;19;19962;-26
2022/09/17 08:50:51;;;;;;;;;;;18.70;99.90;;;;;;4592786;19;19982;-24
2022/09/17 08:52:40;;;;;;;;;;;18.70;99.90;;;;;;4592654;19;19941;-23
2022/09/17 08:54:25;;;;;;;;;;;18.70;99.90;;;;;;4592419;19;20392;-24
2022/09/17 08:56:08;;;;;;;;;;;18.80;99.90;;;;;;4592458;19;20230;-26
2022/09/17 08:57:58;;;;;;;;;;;18.80;99.90;;;;;;4592574;19;19926;-23
2022/09/17 08:59:34;;;;;;;;;;;18.80;99.90;;;;;;4592396;19;19911;-26
2022/09/17 09:01:24;;;;;;;;;;;18.80;99.90;;;;;;4592677;19;19915;-24
2022/09/17 09:02:57;;;;;;;;;;;18.80;99.90;;;;;;4592794;19;19938;-26
2022/09/17 09:04:47;;;;;;;;;;;18.80;99.90;;;;;;4592352;19;19929;-27
2022/09/17 09:06:19;;;;;;;;;;;18.80;99.90;;;;;;4592651;19;19933;-23
2022/09/17 09:07:55;;;;;;;;;;;18.80;99.90;;;;;;4590616;19;19911;-23
2022/09/17 09:09:27;;;;;;;;;;;18.90;99.90;;;;;;4592665;19;19938;-24
2022/09/17 09:10:59;;;;;;;;;;;18.90;99.90;;;;;;4591893;19;19919;-21
2022/09/17 09:12:32;;;;;;;;;;;18.90;99.90;;;;;;4592234;19;19930;-25
2022/09/17 09:14:05;;;;;;;;;;;18.90;99.90;;;;;;4592260;19;20387;-21
2022/09/17 09:15:37;;;;;;;;;;;18.90;99.90;;;;;;4592357;19;19939;-22
2022/09/17 09:17:08;;;;;;;;;;;18.90;99.90;;;;;;4592013;19;19929;-24
2022/09/17 09:18:40;;;;;;;;;;;18.90;99.90;;;;;;4591961;19;20373;-21